LavenderCAM.net
Leatherhead Weather
 
Leatherhead Weather
 
 





Aviation weather for

London Heathrow (EGLL) and London Gatwick (EGKK)



London Heathrow (EGLL) METAR / Surface Actual
London / Heathrow Airport, United Kingdom (EGLL) 51-29N 000-27W 0M
Jun 24, 2024 - 02:20 PM EDT / 2024.06.24 1820 UTC
Wind: from the SSW (200 degrees) at 8 MPH (7 KT) (direction variable):0
Visibility: greater than 7 mile(s):0
Sky conditions: mostly cloudy
Temperature: 77 F (25 C)
Dew Point: 59 F (15 C)
Relative Humidity: 53%
Pressure (altimeter): 30.03 in. Hg (1017 hPa)
ob: EGLL 241820Z AUTO 20007KT 140V230 9999 BKN044 25/15 Q1017
cycle: 18
London Heathrow (EGLL) TAF / Forecast
2024/06/24 18:07
TAF EGLL 241659Z 2418/2524 19005KT 9999 SCT045 PROB30 2503/2507 8000


London Gatwick (EGKK) METAR / Surface Actual
London / Gatwick Airport, United Kingdom (EGKK) 51-09N 000-11W 0M
Jun 24, 2024 - 02:20 PM EDT / 2024.06.24 1820 UTC
Wind: from the S (180 degrees) at 6 MPH (5 KT) (direction variable):0
Visibility: greater than 7 mile(s):0
Temperature: 73 F (23 C)
Dew Point: 57 F (14 C)
Relative Humidity: 56%
Pressure (altimeter): 30.03 in. Hg (1017 hPa)
ob: EGKK 241820Z 18005KT 140V220 CAVOK 23/14 Q1017
cycle: 18
London Gatwick (EGKK) TAF / Forecast
2024/06/24 18:07
TAF EGKK 241659Z 2418/2524 VRB04KT 9999 FEW040 PROB30 2500/2507 8000